MAPA DE AEROPUERTO

INFORMACIÓN METAR y TAF


Deprecated: The each() function is deprecated. This message will be suppressed on further calls in /home/customer/www/clickair-va.com/public_html/VAM/vam/helpers/get_metar.php on line 20
METAR FOR LEZL
ADDS - METARS form results

(0736 UTC 07 July 2022)
Data provider http://aviationweather.gov/metar/data/
 
METAR text: LEZL 070730Z VRB01KT CAVOK 25/14 Q1019 NOSIG
Conditions at: LEZL (SEVILLA (CIV/MIL, ES) observed 0730 UTC 07 July 2022
Temperature: 25.0°C (77°F)
Dewpoint: 14.0°C (57°F) [RH = 50%]
Pressure (altimeter): 30.09 inches Hg (1019.0 mb)
Winds: variable direction winds at 1 MPH (1 knots; 0.5 m/s)
Visibility: 6 or more miles (10+ km)
Ceiling: ceiling and visibility are OK
Clouds: unknown
Weather: no significant weather observed at this time

METAR text: LEZL 070700Z VRB02KT CAVOK 24/14 Q1019 NOSIG
Conditions at: LEZL (SEVILLA (CIV/MIL, ES) observed 0700 UTC 07 July 2022
Temperature: 24.0°C (75°F)
Dewpoint: 14.0°C (57°F) [RH = 54%]
Pressure (altimeter): 30.09 inches Hg (1019.0 mb)
Winds: variable direction winds at 2 MPH (2 knots; 1.0 m/s)
Visibility: 6 or more miles (10+ km)
Ceiling: ceiling and visibility are OK
Clouds: unknown
Weather: no significant weather observed at this time

Forecast for: LEZL (SEVILLA (CIV/MIL, ES)
Text: TAF LEZL 070200Z 0703/0803 VRB02KT CAVOK TX39/0716Z TN19/0705Z
Forecast period: 0300 to 1600 UTC 07 July 2022
Forecast type: FROM: standard forecast or significant change
Winds: variable direction winds at 2 MPH (2 knots; 1.0 m/s)
Visibility: 6 or more miles (10+ km)
Ceiling: unknown
Clouds: missing
Weather: no significant weather forecast for this period
Text: BECMG 0716/0719 23011KT
Forecast period: 1600 UTC 07 July 2022 to 0000 UTC 08 July 2022
Forecast type: BECOMING: Conditions expected to become as follows by 1900 UTC 07 July 2022
Winds: from the SW (230 degrees) at 13 MPH (11 knots; 5.7 m/s)
Visibility: 6 or more miles (10+ km)
Ceiling: unknown
Clouds: missing
Weather: no significant weather forecast for this period
Text: BECMG 0800/0802 VRB02KT
Forecast period: 0000 to 0300 UTC 08 July 2022
Forecast type: BECOMING: Conditions expected to become as follows by 0200 UTC 08 July 2022
Winds: variable direction winds at 2 MPH (2 knots; 1.0 m/s)
Visibility: 6 or more miles (10+ km)
Ceiling: unknown
Clouds: missing
Weather: no significant weather forecast for this period